sensor_id;sensor_type;location;lat;lon;timestamp;pressure;altitude;pressure_sealevel;temperature;humidity
68889;BME280;55930;47.412;8.790;2023-11-22T00:00:54;94743.25;;;5.61;100.00
68889;BME280;55930;47.412;8.790;2023-11-22T00:04:15;94756.00;;;5.50;100.00
68889;BME280;55930;47.412;8.790;2023-11-22T00:07:35;94744.63;;;5.53;100.00
68889;BME280;55930;47.412;8.790;2023-11-22T00:10:59;94746.75;;;5.58;100.00
68889;BME280;55930;47.412;8.790;2023-11-22T00:14:19;94744.63;;;5.53;100.00
68889;BME280;55930;47.412;8.790;2023-11-22T00:17:40;94748.19;;;5.59;100.00
68889;BME280;55930;47.412;8.790;2023-11-22T00:21:00;94749.06;;;5.56;100.00
68889;BME280;55930;47.412;8.790;2023-11-22T00:24:21;94760.44;;;5.66;100.00
68889;BME280;55930;47.412;8.790;2023-11-22T00:27:41;94762.09;;;5.60;100.00
68889;BME280;55930;47.412;8.790;2023-11-22T00:31:02;94758.63;;;5.63;100.00
68889;BME280;55930;47.412;8.790;2023-11-22T00:34:22;94764.31;;;5.74;100.00
68889;BME280;55930;47.412;8.790;2023-11-22T00:37:43;94748.66;;;5.04;100.00
68889;BME280;55930;47.412;8.790;2023-11-22T00:41:06;94767.47;;;5.69;100.00
68889;BME280;55930;47.412;8.790;2023-11-22T00:44:27;94760.53;;;5.62;100.00
68889;BME280;55930;47.412;8.790;2023-11-22T00:47:48;94778.31;;;5.71;100.00
68889;BME280;55930;47.412;8.790;2023-11-22T00:51:08;94764.41;;;5.45;100.00
68889;BME280;55930;47.412;8.790;2023-11-22T00:54:31;94769.97;;;5.34;100.00
68889;BME280;55930;47.412;8.790;2023-11-22T00:57:51;94776.28;;;5.37;100.00
68889;BME280;55930;47.412;8.790;2023-11-22T01:01:12;94770.59;;;5.26;100.00
68889;BME280;55930;47.412;8.790;2023-11-22T01:04:32;94775.31;;;5.31;100.00
68889;BME280;55930;47.412;8.790;2023-11-22T01:07:56;94781.00;;;5.29;100.00
68889;BME280;55930;47.412;8.790;2023-11-22T01:11:16;94795.84;;;5.36;100.00
68889;BME280;55930;47.412;8.790;2023-11-22T01:14:37;94795.22;;;5.45;100.00
68889;BME280;55930;47.412;8.790;2023-11-22T01:17:58;94797.88;;;5.45;100.00
68889;BME280;55930;47.412;8.790;2023-11-22T01:21:18;94790.38;;;5.43;100.00
68889;BME280;55930;47.412;8.790;2023-11-22T01:24:39;94789.84;;;5.35;100.00
68889;BME280;55930;47.412;8.790;2023-11-22T01:28:00;94793.75;;;5.44;100.00
68889;BME280;55930;47.412;8.790;2023-11-22T01:31:20;94790.47;;;5.27;100.00
68889;BME280;55930;47.412;8.790;2023-11-22T01:34:42;94797.09;;;5.19;100.00
68889;BME280;55930;47.412;8.790;2023-11-22T01:38:02;94795.47;;;5.09;100.00
68889;BME280;55930;47.412;8.790;2023-11-22T01:41:24;94798.97;;;5.18;100.00
68889;BME280;55930;47.412;8.790;2023-11-22T01:44:44;94802.78;;;5.30;100.00
68889;BME280;55930;47.412;8.790;2023-11-22T01:48:05;94802.16;;;5.26;100.00
68889;BME280;55930;47.412;8.790;2023-11-22T01:51:26;94801.06;;;5.11;100.00
68889;BME280;55930;47.412;8.790;2023-11-22T01:54:47;94797.78;;;5.07;100.00
68889;BME280;55930;47.412;8.790;2023-11-22T01:58:10;94803.69;;;5.11;100.00
68889;BME280;55930;47.412;8.790;2023-11-22T02:01:31;94800.00;;;5.08;100.00
68889;BME280;55930;47.412;8.790;2023-11-22T02:04:51;94806.19;;;5.02;100.00
68889;BME280;55930;47.412;8.790;2023-11-22T02:08:15;94808.22;;;5.10;100.00
68889;BME280;55930;47.412;8.790;2023-11-22T02:11:35;94807.56;;;5.06;100.00
68889;BME280;55930;47.412;8.790;2023-11-22T02:14:55;94814.28;;;5.07;100.00
68889;BME280;55930;47.412;8.790;2023-11-22T02:18:16;94816.19;;;5.07;100.00
68889;BME280;55930;47.412;8.790;2023-11-22T02:21:36;94816.50;;;5.09;100.00
68889;BME280;55930;47.412;8.790;2023-11-22T02:24:57;94809.00;;;4.94;100.00
68889;BME280;55930;47.412;8.790;2023-11-22T02:28:19;94815.06;;;4.91;100.00
68889;BME280;55930;47.412;8.790;2023-11-22T02:31:41;94815.22;;;5.00;100.00
68889;BME280;55930;47.412;8.790;2023-11-22T02:35:03;94819.13;;;5.09;100.00
68889;BME280;55930;47.412;8.790;2023-11-22T02:38:28;94823.00;;;5.04;100.00
68889;BME280;55930;47.412;8.790;2023-11-22T02:41:51;94827.53;;;5.04;100.00
68889;BME280;55930;47.412;8.790;2023-11-22T02:45:11;94832.78;;;5.04;100.00
68889;BME280;55930;47.412;8.790;2023-11-22T02:48:32;94842.06;;;5.08;100.00
68889;BME280;55930;47.412;8.790;2023-11-22T02:51:53;94840.19;;;5.09;100.00
68889;BME280;55930;47.412;8.790;2023-11-22T02:55:14;94830.34;;;4.96;100.00
68889;BME280;55930;47.412;8.790;2023-11-22T02:58:35;94833.63;;;5.00;100.00
68889;BME280;55930;47.412;8.790;2023-11-22T03:01:55;94837.47;;;4.96;100.00
68889;BME280;55930;47.412;8.790;2023-11-22T03:05:19;94838.47;;;5.02;100.00
68889;BME280;55930;47.412;8.790;2023-11-22T03:08:42;94832.47;;;5.02;100.00
68889;BME280;55930;47.412;8.790;2023-11-22T03:12:03;94838.19;;;4.84;100.00
68889;BME280;55930;47.412;8.790;2023-11-22T03:15:23;94845.31;;;4.83;100.00
68889;BME280;55930;47.412;8.790;2023-11-22T03:18:44;94840.88;;;4.80;100.00
68889;BME280;55930;47.412;8.790;2023-11-22T03:22:05;94847.59;;;4.97;100.00
68889;BME280;55930;47.412;8.790;2023-11-22T03:25:26;94846.63;;;4.91;100.00
68889;BME280;55930;47.412;8.790;2023-11-22T03:28:47;94837.47;;;4.96;100.00
68889;BME280;55930;47.412;8.790;2023-11-22T03:32:07;94847.34;;;4.92;100.00
68889;BME280;55930;47.412;8.790;2023-11-22T03:35:28;94844.00;;;4.91;100.00
68889;BME280;55930;47.412;8.790;2023-11-22T03:38:49;94847.13;;;4.86;100.00
68889;BME280;55930;47.412;8.790;2023-11-22T03:42:09;94852.94;;;4.94;100.00
68889;BME280;55930;47.412;8.790;2023-11-22T03:45:30;94851.06;;;4.94;100.00
68889;BME280;55930;47.412;8.790;2023-11-22T03:48:50;94856.41;;;4.91;100.00
68889;BME280;55930;47.412;8.790;2023-11-22T03:52:13;94861.59;;;4.78;100.00
68889;BME280;55930;47.412;8.790;2023-11-22T03:55:34;94860.28;;;4.86;100.00
68889;BME280;55930;47.412;8.790;2023-11-22T03:58:55;94851.81;;;4.79;100.00
68889;BME280;55930;47.412;8.790;2023-11-22T04:02:18;94858.22;;;4.78;100.00
68889;BME280;55930;47.412;8.790;2023-11-22T04:05:38;94851.91;;;4.75;100.00
68889;BME280;55930;47.412;8.790;2023-11-22T04:08:59;94867.41;;;4.86;100.00
68889;BME280;55930;47.412;8.790;2023-11-22T04:12:19;94867.66;;;4.75;100.00
68889;BME280;55930;47.412;8.790;2023-11-22T04:15:40;94875.88;;;4.77;100.00
68889;BME280;55930;47.412;8.790;2023-11-22T04:19:04;94878.19;;;4.75;100.00
68889;BME280;55930;47.412;8.790;2023-11-22T04:22:25;94894.75;;;4.72;100.00
68889;BME280;55930;47.412;8.790;2023-11-22T04:25:47;94895.66;;;4.66;100.00
68889;BME280;55930;47.412;8.790;2023-11-22T04:29:10;94898.78;;;4.77;100.00
68889;BME280;55930;47.412;8.790;2023-11-22T04:32:32;94896.75;;;4.68;100.00
68889;BME280;55930;47.412;8.790;2023-11-22T04:35:53;94897.97;;;4.63;100.00
68889;BME280;55930;47.412;8.790;2023-11-22T04:39:14;94908.06;;;4.81;100.00
68889;BME280;55930;47.412;8.790;2023-11-22T04:42:35;94910.50;;;5.05;100.00
68889;BME280;55930;47.412;8.790;2023-11-22T04:45:56;94911.41;;;4.98;100.00
68889;BME280;55930;47.412;8.790;2023-11-22T04:49:18;94909.59;;;4.95;100.00
68889;BME280;55930;47.412;8.790;2023-11-22T04:52:38;94910.44;;;5.08;100.00
68889;BME280;55930;47.412;8.790;2023-11-22T04:56:02;94917.38;;;5.15;100.00
68889;BME280;55930;47.412;8.790;2023-11-22T04:59:25;94912.66;;;5.10;100.00
68889;BME280;55930;47.412;8.790;2023-11-22T05:02:45;94917.59;;;4.91;100.00
68889;BME280;55930;47.412;8.790;2023-11-22T05:06:06;94922.91;;;5.04;100.00
68889;BME280;55930;47.412;8.790;2023-11-22T05:09:27;94933.59;;;4.97;100.00
68889;BME280;55930;47.412;8.790;2023-11-22T05:12:48;94924.16;;;4.99;100.00
68889;BME280;55930;47.412;8.790;2023-11-22T05:16:09;94930.31;;;4.93;100.00
68889;BME280;55930;47.412;8.790;2023-11-22T05:19:29;94931.38;;;4.79;100.00
68889;BME280;55930;47.412;8.790;2023-11-22T05:22:50;94937.63;;;4.85;100.00
68889;BME280;55930;47.412;8.790;2023-11-22T05:26:10;94945.03;;;4.90;100.00
68889;BME280;55930;47.412;8.790;2023-11-22T05:29:31;94950.63;;;4.92;100.00
68889;BME280;55930;47.412;8.790;2023-11-22T05:32:51;94965.41;;;4.86;100.00
68889;BME280;55930;47.412;8.790;2023-11-22T05:36:12;94964.84;;;4.79;100.00
68889;BME280;55930;47.412;8.790;2023-11-22T05:39:34;94969.41;;;4.91;100.00
68889;BME280;55930;47.412;8.790;2023-11-22T05:42:54;94975.66;;;4.81;100.00
68889;BME280;55930;47.412;8.790;2023-11-22T05:46:15;94979.44;;;4.80;100.00
68889;BME280;55930;47.412;8.790;2023-11-22T05:49:41;94975.56;;;4.68;100.00
68889;BME280;55930;47.412;8.790;2023-11-22T05:53:04;94981.47;;;4.88;100.00
68889;BME280;55930;47.412;8.790;2023-11-22T05:56:24;94973.94;;;4.90;100.00
68889;BME280;55930;47.412;8.790;2023-11-22T05:59:45;94975.41;;;4.91;100.00
68889;BME280;55930;47.412;8.790;2023-11-22T06:03:06;94973.94;;;4.90;100.00
68889;BME280;55930;47.412;8.790;2023-11-22T06:06:27;94974.84;;;4.84;100.00
68889;BME280;55930;47.412;8.790;2023-11-22T06:09:47;94973.19;;;4.90;100.00
68889;BME280;55930;47.412;8.790;2023-11-22T06:13:07;94973.94;;;4.74;100.00
68889;BME280;55930;47.412;8.790;2023-11-22T06:16:29;94971.31;;;4.74;100.00
68889;BME280;55930;47.412;8.790;2023-11-22T06:19:49;94984.78;;;4.76;100.00
68889;BME280;55930;47.412;8.790;2023-11-22T06:23:09;94977.69;;;4.73;100.00
68889;BME280;55930;47.412;8.790;2023-11-22T06:26:30;94987.31;;;4.80;100.00
68889;BME280;55930;47.412;8.790;2023-11-22T06:29:50;94991.09;;;4.79;100.00
68889;BME280;55930;47.412;8.790;2023-11-22T06:33:11;94991.59;;;4.90;100.00
68889;BME280;55930;47.412;8.790;2023-11-22T06:36:32;94997.75;;;4.83;100.00
68889;BME280;55930;47.412;8.790;2023-11-22T06:39:52;94994.06;;;4.81;100.00
68889;BME280;55930;47.412;8.790;2023-11-22T06:43:13;95007.94;;;4.81;100.00
68889;BME280;55930;47.412;8.790;2023-11-22T06:46:33;95015.56;;;4.76;100.00
68889;BME280;55930;47.412;8.790;2023-11-22T06:49:56;95021.63;;;4.73;100.00
68889;BME280;55930;47.412;8.790;2023-11-22T06:53:21;95012.13;;;4.79;100.00
68889;BME280;55930;47.412;8.790;2023-11-22T06:56:41;95028.38;;;4.74;100.00
68889;BME280;55930;47.412;8.790;2023-11-22T07:00:03;95020.25;;;4.68;100.00
68889;BME280;55930;47.412;8.790;2023-11-22T07:03:25;95030.75;;;4.68;100.00
68889;BME280;55930;47.412;8.790;2023-11-22T07:06:45;95037.66;;;4.62;100.00
68889;BME280;55930;47.412;8.790;2023-11-22T07:10:06;95041.72;;;4.63;100.00
68889;BME280;55930;47.412;8.790;2023-11-22T07:13:31;95043.56;;;4.66;100.00
68889;BME280;55930;47.412;8.790;2023-11-22T07:16:52;95049.25;;;4.45;100.00
68889;BME280;55930;47.412;8.790;2023-11-22T07:20:12;95059.16;;;4.73;100.00
68889;BME280;55930;47.412;8.790;2023-11-22T07:23:38;95066.91;;;4.80;100.00
68889;BME280;55930;47.412;8.790;2023-11-22T07:26:59;95067.91;;;4.86;100.00
68889;BME280;55930;47.412;8.790;2023-11-22T07:30:22;95077.84;;;4.79;100.00
68889;BME280;55930;47.412;8.790;2023-11-22T07:33:43;95076.94;;;4.85;100.00
68889;BME280;55930;47.412;8.790;2023-11-22T07:37:03;95089.31;;;4.69;100.00
68889;BME280;55930;47.412;8.790;2023-11-22T07:40:24;95090.69;;;4.73;100.00
68889;BME280;55930;47.412;8.790;2023-11-22T07:43:44;95106.81;;;4.55;100.00
68889;BME280;55930;47.412;8.790;2023-11-22T07:47:05;95106.00;;;4.19;100.00
68889;BME280;55930;47.412;8.790;2023-11-22T07:50:29;95116.81;;;4.44;100.00
68889;BME280;55930;47.412;8.790;2023-11-22T07:53:49;95115.91;;;4.51;100.00
68889;BME280;55930;47.412;8.790;2023-11-22T07:57:10;95122.56;;;4.55;100.00
68889;BME280;55930;47.412;8.790;2023-11-22T08:00:30;95112.06;;;4.55;100.00
68889;BME280;55930;47.412;8.790;2023-11-22T08:03:53;95123.66;;;4.58;100.00
68889;BME280;55930;47.412;8.790;2023-11-22T08:07:16;95135.78;;;4.52;100.00
68889;BME280;55930;47.412;8.790;2023-11-22T08:10:37;95157.41;;;4.40;100.00
68889;BME280;55930;47.412;8.790;2023-11-22T08:14:00;95160.09;;;4.36;100.00
68889;BME280;55930;47.412;8.790;2023-11-22T08:17:21;95156.72;;;4.36;100.00
68889;BME280;55930;47.412;8.790;2023-11-22T08:20:42;95167.91;;;4.40;100.00
68889;BME280;55930;47.412;8.790;2023-11-22T08:24:03;95174.19;;;4.46;100.00
68889;BME280;55930;47.412;8.790;2023-11-22T08:27:24;95174.84;;;4.30;100.00
68889;BME280;55930;47.412;8.790;2023-11-22T08:30:44;95179.25;;;4.13;100.00
68889;BME280;55930;47.412;8.790;2023-11-22T08:34:07;95183.91;;;4.26;100.00
68889;BME280;55930;47.412;8.790;2023-11-22T08:37:29;95179.06;;;4.01;100.00
68889;BME280;55930;47.412;8.790;2023-11-22T08:40:49;95187.94;;;4.10;100.00
68889;BME280;55930;47.412;8.790;2023-11-22T08:44:10;95192.31;;;4.17;100.00
68889;BME280;55930;47.412;8.790;2023-11-22T08:47:30;95193.91;;;4.11;100.00
68889;BME280;55930;47.412;8.790;2023-11-22T08:50:51;95200.03;;;4.04;100.00
68889;BME280;55930;47.412;8.790;2023-11-22T08:54:13;95201.53;;;4.05;100.00
68889;BME280;55930;47.412;8.790;2023-11-22T08:57:37;95214.84;;;3.91;100.00
68889;BME280;55930;47.412;8.790;2023-11-22T09:00:58;95216.56;;;3.78;100.00
68889;BME280;55930;47.412;8.790;2023-11-22T09:04:18;95220.88;;;3.65;100.00
68889;BME280;55930;47.412;8.790;2023-11-22T09:07:39;95219.34;;;3.40;100.00
68889;BME280;55930;47.412;8.790;2023-11-22T09:11:00;95220.00;;;3.48;100.00
68889;BME280;55930;47.412;8.790;2023-11-22T09:14:20;95229.97;;;3.30;100.00
68889;BME280;55930;47.412;8.790;2023-11-22T09:17:42;95229.88;;;3.64;100.00
68889;BME280;55930;47.412;8.790;2023-11-22T09:21:06;95243.47;;;3.59;100.00
68889;BME280;55930;47.412;8.790;2023-11-22T09:24:28;95254.50;;;3.73;100.00
68889;BME280;55930;47.412;8.790;2023-11-22T09:27:52;95248.25;;;3.64;100.00
68889;BME280;55930;47.412;8.790;2023-11-22T09:31:15;95254.38;;;3.80;100.00
68889;BME280;55930;47.412;8.790;2023-11-22T09:34:40;95254.88;;;3.99;100.00
68889;BME280;55930;47.412;8.790;2023-11-22T09:38:06;95246.53;;;4.04;100.00
68889;BME280;55930;47.412;8.790;2023-11-22T09:41:30;95244.41;;;3.95;100.00
68889;BME280;55930;47.412;8.790;2023-11-22T09:44:50;95235.41;;;3.69;100.00
68889;BME280;55930;47.412;8.790;2023-11-22T09:48:20;95246.31;;;3.68;100.00
68889;BME280;55930;47.412;8.790;2023-11-22T09:51:43;95237.19;;;3.76;100.00
68889;BME280;55930;47.412;8.790;2023-11-22T09:55:04;95232.38;;;3.74;100.00
68889;BME280;55930;47.412;8.790;2023-11-22T09:58:25;95239.31;;;3.84;100.00
68889;BME280;55930;47.412;8.790;2023-11-22T10:01:47;95235.03;;;3.71;100.00
68889;BME280;55930;47.412;8.790;2023-11-22T10:05:09;95225.38;;;3.37;100.00
68889;BME280;55930;47.412;8.790;2023-11-22T10:08:29;95226.69;;;3.76;100.00
68889;BME280;55930;47.412;8.790;2023-11-22T10:11:50;95222.03;;;3.87;100.00
68889;BME280;55930;47.412;8.790;2023-11-22T10:15:14;95226.69;;;3.76;100.00
68889;BME280;55930;47.412;8.790;2023-11-22T10:18:42;95211.06;;;3.69;100.00
68889;BME280;55930;47.412;8.790;2023-11-22T10:22:05;95221.13;;;3.47;100.00
68889;BME280;55930;47.412;8.790;2023-11-22T10:25:26;95232.06;;;3.69;100.00
68889;BME280;55930;47.412;8.790;2023-11-22T10:28:53;95221.41;;;3.53;100.00
68889;BME280;55930;47.412;8.790;2023-11-22T10:32:13;95232.38;;;3.44;100.00
68889;BME280;55930;47.412;8.790;2023-11-22T10:35:35;95245.63;;;3.64;100.00
68889;BME280;55930;47.412;8.790;2023-11-22T10:38:56;95243.72;;;3.37;100.00
68889;BME280;55930;47.412;8.790;2023-11-22T10:42:18;95241.53;;;3.32;100.00
68889;BME280;55930;47.412;8.790;2023-11-22T10:45:41;95243.16;;;3.23;100.00
68889;BME280;55930;47.412;8.790;2023-11-22T10:49:04;95246.06;;;3.59;100.00
68889;BME280;55930;47.412;8.790;2023-11-22T10:52:27;95261.38;;;3.64;100.00
68889;BME280;55930;47.412;8.790;2023-11-22T10:55:48;95255.47;;;3.56;100.00
68889;BME280;55930;47.412;8.790;2023-11-22T10:59:19;95251.09;;;3.46;100.00
68889;BME280;55930;47.412;8.790;2023-11-22T11:02:46;95258.84;;;3.26;100.00
68889;BME280;55930;47.412;8.790;2023-11-22T11:06:11;95257.53;;;3.41;100.00
68889;BME280;55930;47.412;8.790;2023-11-22T11:09:34;95257.28;;;3.32;100.00
68889;BME280;55930;47.412;8.790;2023-11-22T11:12:55;95259.44;;;3.37;100.00
68889;BME280;55930;47.412;8.790;2023-11-22T11:16:16;95257.53;;;3.41;100.00
68889;BME280;55930;47.412;8.790;2023-11-22T11:19:37;95261.06;;;3.28;100.00
68889;BME280;55930;47.412;8.790;2023-11-22T11:23:02;95267.47;;;3.54;100.00
68889;BME280;55930;47.412;8.790;2023-11-22T11:26:25;95258.09;;;3.56;100.00
68889;BME280;55930;47.412;8.790;2023-11-22T11:29:46;95277.66;;;3.78;100.00
68889;BME280;55930;47.412;8.790;2023-11-22T11:33:07;95287.03;;;3.49;100.00
68889;BME280;55930;47.412;8.790;2023-11-22T11:36:29;95271.78;;;3.67;100.00
68889;BME280;55930;47.412;8.790;2023-11-22T11:39:51;95285.78;;;3.88;100.00
68889;BME280;55930;47.412;8.790;2023-11-22T11:43:14;95290.25;;;3.60;100.00
68889;BME280;55930;47.412;8.790;2023-11-22T11:46:37;95291.72;;;3.65;100.00
68889;BME280;55930;47.412;8.790;2023-11-22T11:49:58;95279.91;;;3.76;100.00
68889;BME280;55930;47.412;8.790;2023-11-22T11:53:19;95290.50;;;3.69;100.00
68889;BME280;55930;47.412;8.790;2023-11-22T11:56:40;95286.97;;;3.53;100.00
68889;BME280;55930;47.412;8.790;2023-11-22T12:00:01;95289.50;;;3.60;100.00
68889;BME280;55930;47.412;8.790;2023-11-22T12:03:24;95296.41;;;3.77;100.00
68889;BME280;55930;47.412;8.790;2023-11-22T12:06:44;95289.97;;;3.81;100.00
68889;BME280;55930;47.412;8.790;2023-11-22T12:10:07;95271.44;;;3.92;100.00
68889;BME280;55930;47.412;8.790;2023-11-22T12:13:28;95266.31;;;3.85;100.00
68889;BME280;55930;47.412;8.790;2023-11-22T12:16:52;95266.84;;;4.00;100.00
68889;BME280;55930;47.412;8.790;2023-11-22T12:20:15;95261.09;;;4.08;100.00
68889;BME280;55930;47.412;8.790;2023-11-22T12:23:40;95266.19;;;4.42;100.00
68889;BME280;55930;47.412;8.790;2023-11-22T12:27:01;95240.31;;;4.84;100.00
68889;BME280;55930;47.412;8.790;2023-11-22T12:30:31;95238.47;;;4.61;100.00
68889;BME280;55930;47.412;8.790;2023-11-22T12:33:52;95246.91;;;4.49;100.00
68889;BME280;55930;47.412;8.790;2023-11-22T12:37:13;95257.81;;;4.47;100.00
68889;BME280;55930;47.412;8.790;2023-11-22T12:40:33;95250.03;;;4.63;100.00
68889;BME280;55930;47.412;8.790;2023-11-22T12:44:08;95259.78;;;5.06;100.00
68889;BME280;55930;47.412;8.790;2023-11-22T12:47:33;95255.88;;;5.14;100.00
68889;BME280;55930;47.412;8.790;2023-11-22T12:50:56;95259.13;;;5.02;100.00
68889;BME280;55930;47.412;8.790;2023-11-22T12:54:17;95268.44;;;4.63;100.00
68889;BME280;55930;47.412;8.790;2023-11-22T12:57:41;95272.16;;;4.19;100.00
68889;BME280;55930;47.412;8.790;2023-11-22T13:01:04;95283.38;;;4.47;100.00
68889;BME280;55930;47.412;8.790;2023-11-22T13:04:27;95291.19;;;4.27;100.00
68889;BME280;55930;47.412;8.790;2023-11-22T13:07:48;95296.16;;;3.68;100.00
68889;BME280;55930;47.412;8.790;2023-11-22T13:11:11;95306.56;;;3.44;100.00
68889;BME280;55930;47.412;8.790;2023-11-22T13:14:31;95319.06;;;3.64;100.00
68889;BME280;55930;47.412;8.790;2023-11-22T13:17:57;95323.78;;;3.76;100.00
68889;BME280;55930;47.412;8.790;2023-11-22T13:21:18;95334.09;;;3.60;100.00
68889;BME280;55930;47.412;8.790;2023-11-22T13:24:39;95327.69;;;3.34;100.00
68889;BME280;55930;47.412;8.790;2023-11-22T13:27:59;95324.97;;;3.41;100.00
68889;BME280;55930;47.412;8.790;2023-11-22T13:31:20;95328.81;;;3.33;100.00
68889;BME280;55930;47.412;8.790;2023-11-22T13:34:41;95321.69;;;3.33;100.00
68889;BME280;55930;47.412;8.790;2023-11-22T13:38:03;95323.97;;;3.31;100.00
68889;BME280;55930;47.412;8.790;2023-11-22T13:41:27;95329.75;;;3.50;100.00
68889;BME280;55930;47.412;8.790;2023-11-22T13:44:48;95317.47;;;3.43;100.00
68889;BME280;55930;47.412;8.790;2023-11-22T13:48:09;95327.25;;;3.39;100.00
68889;BME280;55930;47.412;8.790;2023-11-22T13:51:31;95313.28;;;3.45;100.00
68889;BME280;55930;47.412;8.790;2023-11-22T13:54:52;95310.06;;;3.34;100.00
68889;BME280;55930;47.412;8.790;2023-11-22T13:58:16;95317.13;;;3.03;100.00
68889;BME280;55930;47.412;8.790;2023-11-22T14:01:36;95323.75;;;3.15;100.00
68889;BME280;55930;47.412;8.790;2023-11-22T14:05:00;95333.88;;;3.51;100.00
68889;BME280;55930;47.412;8.790;2023-11-22T14:08:21;95350.84;;;3.39;100.00
68889;BME280;55930;47.412;8.790;2023-11-22T14:11:42;95359.66;;;3.52;100.00
68889;BME280;55930;47.412;8.790;2023-11-22T14:15:02;95366.06;;;3.17;100.00
68889;BME280;55930;47.412;8.790;2023-11-22T14:18:26;95365.63;;;3.22;100.00
68889;BME280;55930;47.412;8.790;2023-11-22T14:21:46;95369.81;;;3.16;100.00
68889;BME280;55930;47.412;8.790;2023-11-22T14:25:07;95375.00;;;3.20;100.00
68889;BME280;55930;47.412;8.790;2023-11-22T14:28:31;95381.22;;;2.95;100.00
68889;BME280;55930;47.412;8.790;2023-11-22T14:31:51;95377.69;;;2.72;100.00
68889;BME280;55930;47.412;8.790;2023-11-22T14:35:12;95391.09;;;2.81;100.00
68889;BME280;55930;47.412;8.790;2023-11-22T14:38:32;95403.16;;;2.71;100.00
68889;BME280;55930;47.412;8.790;2023-11-22T14:41:55;95399.56;;;2.51;100.00
68889;BME280;55930;47.412;8.790;2023-11-22T14:45:15;95410.34;;;2.60;100.00
68889;BME280;55930;47.412;8.790;2023-11-22T14:48:36;95411.22;;;2.43;100.00
68889;BME280;55930;47.412;8.790;2023-11-22T14:51:57;95416.69;;;2.62;100.00
68889;BME280;55930;47.412;8.790;2023-11-22T14:55:18;95423.97;;;2.37;100.00
68889;BME280;55930;47.412;8.790;2023-11-22T14:58:40;95426.63;;;2.30;100.00
68889;BME280;55930;47.412;8.790;2023-11-22T15:02:01;95432.44;;;2.59;100.00
68889;BME280;55930;47.412;8.790;2023-11-22T15:05:24;95428.09;;;2.38;100.00
68889;BME280;55930;47.412;8.790;2023-11-22T15:08:49;95453.59;;;2.23;100.00
68889;BME280;55930;47.412;8.790;2023-11-22T15:12:10;95461.00;;;2.39;100.00
68889;BME280;55930;47.412;8.790;2023-11-22T15:15:31;95469.19;;;2.41;100.00
68889;BME280;55930;47.412;8.790;2023-11-22T15:18:51;95470.84;;;2.14;100.00
68889;BME280;55930;47.412;8.790;2023-11-22T15:22:12;95480.53;;;2.17;100.00
68889;BME280;55930;47.412;8.790;2023-11-22T15:25:37;95477.19;;;2.13;100.00
68889;BME280;55930;47.412;8.790;2023-11-22T15:29:00;95481.94;;;2.32;100.00
68889;BME280;55930;47.412;8.790;2023-11-22T15:32:20;95476.81;;;2.11;100.00
68889;BME280;55930;47.412;8.790;2023-11-22T15:35:41;95456.66;;;2.01;100.00
68889;BME280;55930;47.412;8.790;2023-11-22T15:39:01;95445.78;;;2.09;100.00
68889;BME280;55930;47.412;8.790;2023-11-22T15:42:22;95451.00;;;2.20;100.00
68889;BME280;55930;47.412;8.790;2023-11-22T15:45:43;95445.38;;;2.21;100.00
68889;BME280;55930;47.412;8.790;2023-11-22T15:49:06;95446.47;;;2.24;100.00
68889;BME280;55930;47.412;8.790;2023-11-22T15:52:26;95430.94;;;1.88;100.00
68889;BME280;55930;47.412;8.790;2023-11-22T15:55:48;95436.41;;;2.19;100.00
68889;BME280;55930;47.412;8.790;2023-11-22T15:59:08;95437.16;;;2.19;100.00
68889;BME280;55930;47.412;8.790;2023-11-22T16:02:29;95416.72;;;1.97;100.00
68889;BME280;55930;47.412;8.790;2023-11-22T16:05:49;95418.16;;;2.05;100.00
68889;BME280;55930;47.412;8.790;2023-11-22T16:09:14;95416.69;;;2.04;100.00
68889;BME280;55930;47.412;8.790;2023-11-22T16:12:35;95423.41;;;2.05;100.00
68889;BME280;55930;47.412;8.790;2023-11-22T16:15:57;95425.97;;;2.15;100.00
68889;BME280;55930;47.412;8.790;2023-11-22T16:19:19;95425.56;;;2.20;100.00
68889;BME280;55930;47.412;8.790;2023-11-22T16:22:41;95438.34;;;2.01;100.00
68889;BME280;55930;47.412;8.790;2023-11-22T16:26:07;95448.78;;;2.08;100.00
68889;BME280;55930;47.412;8.790;2023-11-22T16:29:30;95461.13;;;2.11;100.00
68889;BME280;55930;47.412;8.790;2023-11-22T16:32:50;95463.44;;;1.98;100.00
68889;BME280;55930;47.412;8.790;2023-11-22T16:36:11;95468.31;;;1.89;100.00
68889;BME280;55930;47.412;8.790;2023-11-22T16:39:34;95476.13;;;1.92;100.00
68889;BME280;55930;47.412;8.790;2023-11-22T16:42:55;95495.97;;;1.86;100.00
68889;BME280;55930;47.412;8.790;2023-11-22T16:46:15;95502.34;;;1.78;100.00
68889;BME280;55930;47.412;8.790;2023-11-22T16:49:43;95500.88;;;1.74;100.00
68889;BME280;55930;47.412;8.790;2023-11-22T16:53:05;95505.31;;;1.87;100.00
68889;BME280;55930;47.412;8.790;2023-11-22T16:56:27;95508.31;;;1.89;100.00
68889;BME280;55930;47.412;8.790;2023-11-22T16:59:49;95502.66;;;2.02;100.00
68889;BME280;55930;47.412;8.790;2023-11-22T17:03:13;95492.94;;;2.06;100.00
68889;BME280;55930;47.412;8.790;2023-11-22T17:06:33;95493.41;;;1.72;100.00
68889;BME280;55930;47.412;8.790;2023-11-22T17:09:54;95486.94;;;2.02;100.00
68889;BME280;55930;47.412;8.790;2023-11-22T17:13:14;95498.19;;;1.95;100.00
68889;BME280;55930;47.412;8.790;2023-11-22T17:16:35;95503.44;;;1.88;100.00
68889;BME280;55930;47.412;8.790;2023-11-22T17:19:55;95509.81;;;1.87;100.00
68889;BME280;55930;47.412;8.790;2023-11-22T17:23:18;95515.03;;;1.90;100.00
68889;BME280;55930;47.412;8.790;2023-11-22T17:26:38;95518.78;;;1.82;100.00
68889;BME280;55930;47.412;8.790;2023-11-22T17:29:59;95523.66;;;1.77;100.00
68889;BME280;55930;47.412;8.790;2023-11-22T17:33:22;95524.03;;;1.79;100.00
68889;BME280;55930;47.412;8.790;2023-11-22T17:36:42;95532.25;;;1.77;100.00
68889;BME280;55930;47.412;8.790;2023-11-22T17:40:03;95533.00;;;1.81;100.00
68889;BME280;55930;47.412;8.790;2023-11-22T17:43:25;95544.19;;;1.85;100.00
68889;BME280;55930;47.412;8.790;2023-11-22T17:46:45;95536.72;;;1.80;100.00